Terminal Aerodrome Forecast
Issued by NWS Goodland, KS

Home | Current Version | Previous Version | Text Only | Print | Product List | Glossary On
Versions: 1 2 3 4 5 6 7 8 9 10 11 12
744
FTUS43 KGLD 180532
TAFGLD
TAF
KGLD 180532Z 1806/1906 16012KT P6SM SKC
     FM180800 21009KT P6SM SKC
     FM181100 25007KT P6SM SKC
     FM181300 31007KT P6SM SKC
     FM181400 34009KT P6SM SKC
     FM181700 03010KT P6SM SKC=

USA.gov is the U.S. government's official web portal to all federal, state and local government web resources and services.